Terminal Aerodrome Forecast
Issued by NWS

Home | Current Version | Previous Version | Text Only | Print | Product List | Glossary Off
Versions: 1 2 3 4 5 6 7 8 9 10 11 12 13 14 15 16 17 18 19

000
FTUS43 KICT 212334
TAFSLN
TAF
KSLN 212334Z 2200/2224 05010KT P6SM VCSH OVC050
     FM220400 05009KT 4SM -SNPL OVC020
     FM220700 04008KT 4SM -FZRAPL OVC010
     FM221300 05007KT 4SM -FZDZ BR OVC007
     FM221700 07006KT P6SM OVC014
     FM222100 14011KT P6SM BKN015=

USA.gov is the U.S. government's official web portal to all federal, state and local government web resources and services.